Time;durP1;ratioP1;P1;durP2;ratioP2;P2;SDS_P1;SDS_P2;PMS_P1;PMS_P2;Temp;Humidity;BMP_temperature;BMP_pressure;BME280_temperature;BME280_humidity;BME280_pressure;Samples;Min_cycle;Max_cycle;Signal;HPM_P1;HPM_P2
2023/11/19 00:00:16;537196.00;1.79;925.89;50569.00;0.17;88.17;;;;;14.50;1.00;;;;;;2264146;61;1121;-87
2023/11/19 00:02:44;666435.00;2.22;1149.08;68947.00;0.23;119.94;;;;;14.60;1.00;;;;;;2264059;61;1086;-87
2023/11/19 00:05:12;393741.00;1.31;679.05;8806.00;0.03;15.88;;;;;14.60;1.00;;;;;;2263887;61;1364;-86
2023/11/19 00:07:41;473389.00;1.58;816.02;6884.00;0.02;12.55;;;;;14.60;1.00;;;;;;2263955;61;1137;-86
2023/11/19 00:10:09;505279.00;1.68;870.91;46339.00;0.15;80.85;;;;;14.40;1.00;;;;;;2263917;61;2152;-87
2023/11/19 00:12:36;433486.00;1.44;747.38;46703.00;0.16;81.48;;;;;14.30;1.00;;;;;;2264054;61;1241;-87
2023/11/19 00:15:05;829275.00;2.76;1432.23;47176.00;0.16;82.30;;;;;14.30;1.00;;;;;;2264091;61;1357;-88
2023/11/19 00:17:32;701072.00;2.34;1209.10;36760.00;0.12;64.28;;;;;14.40;1.00;;;;;;2263787;61;2021;-88
2023/11/19 00:19:59;1058770.00;3.53;1836.84;37058.00;0.12;64.80;;;;;14.60;1.00;;;;;;2264121;61;891;-87
2023/11/19 00:22:26;995585.00;3.32;1724.65;152740.00;0.51;264.53;;;;;14.70;1.00;;;;;;2263814;61;1039;-87
2023/11/19 00:24:53;829817.00;2.77;1433.18;25566.00;0.09;44.91;;;;;14.90;1.00;;;;;;2263894;61;1255;-87
2023/11/19 00:27:20;1321231.00;4.40;2311.01;82430.00;0.27;143.23;;;;;15.20;1.00;;;;;;2264027;61;971;-88
2023/11/19 00:29:47;850325.00;2.83;1469.04;70999.00;0.24;123.49;;;;;15.10;1.00;;;;;;2263899;61;1058;-86
2023/11/19 00:32:16;842841.00;2.81;1455.94;19341.00;0.06;34.13;;;;;15.00;1.00;;;;;;2263990;61;938;-88
2023/11/19 00:34:45;763300.00;2.54;1317.19;4742.00;0.02;8.84;;;;;15.00;1.00;;;;;;2263940;61;2282;-88
2023/11/19 00:37:11;704766.00;2.35;1215.50;6595.00;0.02;12.05;;;;;15.00;1.00;;;;;;2263918;61;1069;-86
2023/11/19 00:39:38;556447.00;1.85;959.07;0.00;0.00;0.62;;;;;14.70;1.00;;;;;;2263902;61;2006;-87
2023/11/19 00:42:06;881807.00;2.94;1524.19;20448.00;0.07;36.05;;;;;14.70;1.00;;;;;;2263965;61;1113;-85
2023/11/19 00:44:32;955598.00;3.19;1653.99;104283.00;0.35;180.96;;;;;14.50;1.00;;;;;;2263868;61;1593;-86
2023/11/19 00:47:00;596976.00;1.99;1029.00;0.00;0.00;0.62;;;;;14.50;1.00;;;;;;2264022;61;998;-86
2023/11/19 00:49:28;993463.00;3.31;1720.90;130676.00;0.44;226.49;;;;;14.40;1.00;;;;;;2263919;61;999;-87
2023/11/19 00:51:55;737555.00;2.46;1272.43;49161.00;0.16;85.74;;;;;14.10;1.00;;;;;;2263720;61;2048;-85
2023/11/19 00:54:25;495962.00;1.65;854.87;9791.00;0.03;17.59;;;;;13.50;1.00;;;;;;2263897;61;1260;-87
2023/11/19 00:56:52;457637.00;1.53;788.92;0.00;0.00;0.62;;;;;13.40;1.30;;;;;;2263901;61;1139;-84
2023/11/19 00:59:19;689019.00;2.30;1188.20;77649.00;0.26;134.98;;;;;13.60;1.10;;;;;;2263704;61;2006;-87
2023/11/19 01:01:47;747175.00;2.49;1289.15;38618.00;0.13;67.50;;;;;13.60;1.00;;;;;;2263891;61;989;-86
2023/11/19 01:04:14;932058.00;3.11;1612.50;63314.00;0.21;110.21;;;;;13.60;1.00;;;;;;2263776;61;1155;-87
2023/11/19 01:06:43;964737.00;3.22;1670.11;95878.00;0.32;166.46;;;;;13.70;1.00;;;;;;2263901;61;1022;-86
2023/11/19 01:09:10;858498.00;2.86;1483.34;32724.00;0.11;57.30;;;;;13.70;1.00;;;;;;2275286;40;3586;-87
2023/11/19 01:11:39;713938.00;2.38;1231.42;6280.00;0.02;11.50;;;;;13.70;1.30;;;;;;2273305;61;1429;-86
2023/11/19 01:14:05;513843.00;1.71;885.66;84021.00;0.28;145.98;;;;;13.80;1.00;;;;;;2271011;61;1372;-86
2023/11/19 01:16:32;718856.00;2.40;1239.95;95743.00;0.32;166.22;;;;;13.70;1.50;;;;;;2267740;61;1233;-85
2023/11/19 01:19:04;968078.00;3.23;1676.01;137629.00;0.46;238.48;;;;;13.80;1.10;;;;;;2267789;61;2001;-86
2023/11/19 01:21:30;856444.00;2.85;1479.75;72250.00;0.24;125.65;;;;;13.60;1.60;;;;;;2267872;61;1230;-87
2023/11/19 01:23:59;657144.00;2.19;1133.00;48381.00;0.16;84.39;;;;;13.40;2.30;;;;;;2267494;61;1337;-87
2023/11/19 01:26:26;790333.00;2.63;1364.27;49361.00;0.16;86.08;;;;;13.30;3.40;;;;;;2267626;61;2227;-87
2023/11/19 01:28:53;1083384.00;3.61;1880.73;103285.00;0.34;179.24;;;;;13.20;4.30;;;;;;2267764;61;1021;-86
2023/11/19 01:31:21;970324.00;3.23;1679.98;85215.00;0.28;148.04;;;;;13.20;4.70;;;;;;2267417;61;1339;-86
2023/11/19 01:33:48;909705.00;3.03;1573.17;156947.00;0.52;271.78;;;;;13.10;5.50;;;;;;2267691;61;1448;-85
2023/11/19 01:36:15;498128.00;1.66;858.60;72469.00;0.24;126.03;;;;;13.20;5.60;;;;;;2267738;61;1045;-88
2023/11/19 01:38:42;117586232.00;391.95;65856676.00;82002.00;0.27;142.50;;;;;13.40;4.70;;;;;;2267823;61;2010;-87
2023/11/19 01:41:11;385885.00;1.29;665.54;85637.00;0.29;148.77;;;;;13.40;4.50;;;;;;2267741;61;1053;-86
2023/11/19 01:43:41;355561.00;1.19;613.42;95127.00;0.32;165.16;;;;;13.50;3.90;;;;;;2267715;61;1363;-86
2023/11/19 01:46:09;315963.00;1.05;545.36;86461.00;0.29;150.20;;;;;13.80;3.70;;;;;;2267740;61;1158;-86
2023/11/19 01:48:42;263528.00;0.88;455.22;80842.00;0.27;140.49;;;;;13.80;3.10;;;;;;2267849;61;1098;-86
2023/11/19 01:51:13;461186.00;1.54;795.02;106188.00;0.35;184.25;;;;;13.90;1.80;;;;;;2267761;61;1016;-87
2023/11/19 01:53:41;263801.00;0.88;455.68;87173.00;0.29;151.43;;;;;14.00;1.90;;;;;;2267477;61;1445;-86
2023/11/19 01:56:12;310698.00;1.04;536.31;83990.00;0.28;145.93;;;;;14.00;1.70;;;;;;2267588;61;1048;-86
2023/11/19 01:58:41;376129.00;1.25;648.77;84289.00;0.28;146.45;;;;;13.80;3.10;;;;;;2267801;61;1996;-85
2023/11/19 02:01:10;271473.00;0.90;468.88;85882.00;0.29;149.20;;;;;13.40;5.00;;;;;;2267677;61;1107;-85
2023/11/19 02:03:38;332544.00;1.11;573.86;87938.00;0.29;152.75;;;;;13.10;6.30;;;;;;2267809;61;1340;-85
2023/11/19 02:06:06;230490.00;0.77;398.39;65198.00;0.22;113.46;;;;;13.20;5.80;;;;;;2267730;61;959;-86
2023/11/19 02:08:33;315858.00;1.05;545.18;88423.00;0.29;153.58;;;;;13.30;6.50;;;;;;2267477;61;1873;-85
2023/11/19 02:11:01;234673.00;0.78;405.59;86666.00;0.29;150.55;;;;;13.40;5.90;;;;;;2268120;61;1060;-85
2023/11/19 02:13:30;350448.00;1.17;604.63;86712.00;0.29;150.63;;;;;13.40;6.20;;;;;;2268369;61;1176;-85
2023/11/19 02:15:57;203393.00;0.68;351.76;59269.00;0.20;103.21;;;;;13.30;6.70;;;;;;2268365;61;1251;-86
2023/11/19 02:18:28;0.00;0.00;0.62;0.00;0.00;0.62;;;;;13.30;7.00;;;;;;2268300;61;1997;-87
2023/11/19 02:20:55;237.00;0.00;1.03;0.00;0.00;0.62;;;;;13.50;5.60;;;;;;2268439;61;1110;-87
2023/11/19 02:23:23;113468.00;0.38;196.81;0.00;0.00;0.62;;;;;13.30;7.00;;;;;;2268213;61;956;-85
2023/11/19 02:26:10;130790.00;0.44;226.69;0.00;0.00;0.62;;;;;13.30;6.70;;;;;;2268395;61;1345;-86
2023/11/19 02:28:39;285326.00;0.95;492.69;94828.00;0.32;164.64;;;;;13.30;7.40;;;;;;2268267;61;1102;-85
2023/11/19 02:31:09;193615.00;0.65;334.93;85387.00;0.28;148.34;;;;;13.40;6.50;;;;;;2268305;61;1131;-84
2023/11/19 02:33:36;172216.00;0.57;298.08;91324.00;0.30;158.59;;;;;13.20;7.80;;;;;;2267981;61;1412;-85
2023/11/19 02:36:03;171615.00;0.57;297.05;85685.00;0.29;148.86;;;;;13.30;7.40;;;;;;2268375;61;1067;-85
2023/11/19 02:38:30;265294.00;0.88;458.25;85045.00;0.28;147.75;;;;;13.50;7.10;;;;;;2268275;61;1920;-86
2023/11/19 02:40:57;228775.00;0.76;395.44;90279.00;0.30;156.79;;;;;13.30;7.90;;;;;;2268391;61;1211;-86
2023/11/19 02:43:24;369303.00;1.23;637.04;84873.00;0.28;147.45;;;;;13.40;7.60;;;;;;2268407;61;1250;-86
2023/11/19 02:45:55;0.00;0.00;0.62;0.00;0.00;0.62;;;;;13.40;7.20;;;;;;2268362;61;1385;-86
2023/11/19 02:48:22;0.00;0.00;0.62;0.00;0.00;0.62;;;;;13.30;7.80;;;;;;2268388;61;1342;-86
2023/11/19 02:50:49;118974.00;0.40;206.31;43742.00;0.15;76.36;;;;;13.50;7.10;;;;;;2267958;61;1545;-86
2023/11/19 02:53:17;70669.00;0.24;122.92;0.00;0.00;0.62;;;;;13.60;6.00;;;;;;2268313;61;1047;-86
2023/11/19 02:55:48;130973.00;0.44;227.01;0.00;0.00;0.62;;;;;13.60;6.60;;;;;;2268207;61;1294;-85
2023/11/19 02:58:23;0.00;0.00;0.62;0.00;0.00;0.62;;;;;13.70;6.20;;;;;;2268213;61;1127;-84
2023/11/19 03:00:56;282175.00;0.94;487.28;85025.00;0.28;147.72;;;;;13.60;6.60;;;;;;2268355;61;1057;-86
2023/11/19 03:03:28;0.00;0.00;0.62;0.00;0.00;0.62;;;;;13.70;6.20;;;;;;2268277;61;1164;-86
2023/11/19 03:05:55;50541.00;0.17;88.12;0.00;0.00;0.62;;;;;13.70;5.80;;;;;;2268116;61;1221;-85
2023/11/19 03:08:22;22582.00;0.08;39.74;0.00;0.00;0.62;;;;;13.70;6.00;;;;;;2271401;40;3573;-84
2023/11/19 03:10:52;17446.00;0.06;30.85;0.00;0.00;0.62;;;;;13.50;6.80;;;;;;2272311;61;1026;-86
2023/11/19 03:13:19;199296.00;0.66;344.71;0.00;0.00;0.62;;;;;13.70;7.30;;;;;;2272244;61;989;-85
2023/11/19 03:15:45;42190.00;0.14;73.68;0.00;0.00;0.62;;;;;13.60;7.40;;;;;;2268596;61;2028;-85
2023/11/19 03:18:14;21700.00;0.07;38.21;0.00;0.00;0.62;;;;;13.50;8.00;;;;;;2268212;61;1647;-85
2023/11/19 03:20:41;46431.00;0.15;81.01;0.00;0.00;0.62;;;;;13.40;7.90;;;;;;2268104;61;2014;-85
2023/11/19 03:23:08;51614.00;0.17;89.98;0.00;0.00;0.62;;;;;13.20;9.00;;;;;;2267895;61;1535;-86
2023/11/19 03:25:36;34183.00;0.11;59.82;0.00;0.00;0.62;;;;;13.40;8.50;;;;;;2268019;61;1310;-87
2023/11/19 03:28:04;51111.00;0.17;89.11;0.00;0.00;0.62;;;;;13.40;8.90;;;;;;2268101;61;1309;-86
2023/11/19 03:30:32;14566.00;0.05;25.86;0.00;0.00;0.62;;;;;13.40;8.70;;;;;;2268096;61;1019;-85
2023/11/19 03:33:03;0.00;0.00;0.62;0.00;0.00;0.62;;;;;13.40;9.20;;;;;;2268039;61;1006;-87
2023/11/19 03:35:32;326715.00;1.09;563.84;0.00;0.00;0.62;;;;;13.40;9.90;;;;;;2268030;61;1236;-86
2023/11/19 03:38:01;54311.00;0.18;94.64;0.00;0.00;0.62;;;;;13.50;9.00;;;;;;2268107;61;1392;-85
2023/11/19 03:40:28;0.00;0.00;0.62;0.00;0.00;0.62;;;;;13.60;8.60;;;;;;2268151;61;1931;-86
2023/11/19 03:42:57;34499.00;0.11;60.37;0.00;0.00;0.62;;;;;13.40;8.80;;;;;;2267995;61;1467;-86
2023/11/19 03:45:24;30007.00;0.10;52.60;0.00;0.00;0.62;;;;;13.40;10.00;;;;;;2268047;61;1280;-86
2023/11/19 03:47:51;0.00;0.00;0.62;0.00;0.00;0.62;;;;;13.60;8.60;;;;;;2268102;61;1154;-85
2023/11/19 03:50:19;0.00;0.00;0.62;0.00;0.00;0.62;;;;;13.50;9.20;;;;;;2268130;61;1017;-85
2023/11/19 03:52:48;0.00;0.00;0.62;0.00;0.00;0.62;;;;;13.60;8.80;;;;;;2268087;61;1662;-87
2023/11/19 03:55:15;49355.00;0.16;86.07;0.00;0.00;0.62;;;;;13.70;8.20;;;;;;2268193;61;1281;-87
2023/11/19 03:57:42;59636.00;0.20;103.85;0.00;0.00;0.62;;;;;13.90;7.30;;;;;;2268217;61;1254;-86
2023/11/19 04:00:10;16359.00;0.05;28.96;0.00;0.00;0.62;;;;;13.90;6.40;;;;;;2268120;61;2010;-86
2023/11/19 04:02:37;0.00;0.00;0.62;0.00;0.00;0.62;;;;;13.70;7.70;;;;;;2268336;61;1014;-86
2023/11/19 04:05:04;0.00;0.00;0.62;0.00;0.00;0.62;;;;;13.70;7.80;;;;;;2268182;61;1331;-88
2023/11/19 04:07:31;18393.00;0.06;32.49;0.00;0.00;0.62;;;;;13.80;7.80;;;;;;2268357;61;1130;-87
2023/11/19 04:10:00;0.00;0.00;0.62;0.00;0.00;0.62;;;;;13.90;7.50;;;;;;2268415;61;1116;-87
2023/11/19 04:12:27;0.00;0.00;0.62;0.00;0.00;0.62;;;;;14.10;6.20;;;;;;2268438;61;1118;-86
2023/11/19 04:14:53;0.00;0.00;0.62;0.00;0.00;0.62;;;;;14.10;5.90;;;;;;2268367;61;1350;-85
2023/11/19 04:17:20;42460.00;0.14;74.14;0.00;0.00;0.62;;;;;14.10;6.00;;;;;;2268233;61;1110;-86
2023/11/19 04:19:47;0.00;0.00;0.62;0.00;0.00;0.62;;;;;14.10;5.70;;;;;;2268327;61;1996;-87
2023/11/19 04:22:14;0.00;0.00;0.62;0.00;0.00;0.62;;;;;13.90;7.10;;;;;;2268377;61;1135;-85
2023/11/19 04:24:43;0.00;0.00;0.62;0.00;0.00;0.62;;;;;13.90;7.40;;;;;;2268337;61;1330;-86
2023/11/19 04:27:12;0.00;0.00;0.62;0.00;0.00;0.62;;;;;13.90;7.50;;;;;;2268450;61;1044;-86
2023/11/19 04:29:38;0.00;0.00;0.62;0.00;0.00;0.62;;;;;13.80;7.50;;;;;;2268327;61;1115;-85
2023/11/19 04:32:06;0.00;0.00;0.62;0.00;0.00;0.62;;;;;13.60;8.40;;;;;;2268085;61;1128;-88
2023/11/19 04:34:33;0.00;0.00;0.62;0.00;0.00;0.62;;;;;13.50;9.50;;;;;;2268057;61;1475;-86
2023/11/19 04:37:03;13452.00;0.04;23.93;0.00;0.00;0.62;;;;;13.40;10.70;;;;;;2268325;61;1039;-86
2023/11/19 04:39:30;0.00;0.00;0.62;0.00;0.00;0.62;;;;;13.30;11.20;;;;;;2268171;61;1915;-85
2023/11/19 04:41:57;0.00;0.00;0.62;0.00;0.00;0.62;;;;;13.10;12.30;;;;;;2268352;61;1122;-87
2023/11/19 04:44:25;0.00;0.00;0.62;0.00;0.00;0.62;;;;;13.10;12.80;;;;;;2268303;61;1363;-86
2023/11/19 04:46:52;0.00;0.00;0.62;0.00;0.00;0.62;;;;;13.00;13.30;;;;;;2268238;61;951;-86
2023/11/19 04:49:18;839.00;0.00;2.07;0.00;0.00;0.62;;;;;13.20;12.40;;;;;;2268280;61;1115;-86
2023/11/19 04:51:47;6292.00;0.02;11.52;0.00;0.00;0.62;;;;;13.40;10.90;;;;;;2268237;61;1039;-86
2023/11/19 04:54:14;0.00;0.00;0.62;0.00;0.00;0.62;;;;;13.50;11.30;;;;;;2268261;61;1268;-87
2023/11/19 04:56:41;11103.00;0.04;19.86;0.00;0.00;0.62;;;;;13.70;10.50;;;;;;2268270;61;1545;-87
2023/11/19 04:59:08;122373.00;0.41;212.18;0.00;0.00;0.62;;;;;13.60;10.60;;;;;;2268176;61;1993;-87
2023/11/19 05:01:36;6144.00;0.02;11.27;0.00;0.00;0.62;;;;;13.70;10.30;;;;;;2268071;61;1521;-87
2023/11/19 05:04:04;23319.00;0.08;41.02;0.00;0.00;0.62;;;;;13.60;10.60;;;;;;2268260;61;1388;-86
2023/11/19 05:06:31;15887.00;0.05;28.15;0.00;0.00;0.62;;;;;13.70;10.30;;;;;;2268173;61;1115;-87
2023/11/19 05:09:04;39756.00;0.13;69.47;0.00;0.00;0.62;;;;;13.70;10.50;;;;;;2268123;61;1111;-87
2023/11/19 05:11:31;14661.00;0.05;26.02;0.00;0.00;0.62;;;;;13.70;10.40;;;;;;2268247;61;1309;-87
2023/11/19 05:13:58;0.00;0.00;0.62;0.00;0.00;0.62;;;;;13.60;10.10;;;;;;2268197;61;1226;-86
2023/11/19 05:16:24;91528.00;0.31;158.95;24429.00;0.08;42.94;;;;;13.60;10.90;;;;;;2268023;61;966;-87
2023/11/19 05:18:53;72039.00;0.24;125.28;0.00;0.00;0.62;;;;;13.70;10.70;;;;;;2268241;61;1117;-87
2023/11/19 05:21:19;7632.00;0.03;13.85;0.00;0.00;0.62;;;;;13.80;10.20;;;;;;2268042;61;1956;-87
2023/11/19 05:23:46;43568.00;0.15;76.06;0.00;0.00;0.62;;;;;13.80;10.00;;;;;;2268057;61;1394;-87
2023/11/19 05:26:19;50700.00;0.17;88.40;0.00;0.00;0.62;;;;;13.80;9.90;;;;;;2268263;61;1093;-85
2023/11/19 05:28:46;20291.00;0.07;35.77;0.00;0.00;0.62;;;;;13.90;9.60;;;;;;2268274;61;1016;-88
2023/11/19 05:31:12;0.00;0.00;0.62;0.00;0.00;0.62;;;;;13.80;9.90;;;;;;2268205;61;1107;-86
2023/11/19 05:33:39;0.00;0.00;0.62;0.00;0.00;0.62;;;;;13.90;10.10;;;;;;2268114;61;1298;-85
2023/11/19 05:36:09;11262.00;0.04;20.14;0.00;0.00;0.62;;;;;13.90;9.40;;;;;;2268130;61;1176;-87
2023/11/19 05:38:35;0.00;0.00;0.62;0.00;0.00;0.62;;;;;13.80;10.40;;;;;;2268150;61;995;-86
2023/11/19 05:41:02;68132.00;0.23;118.53;0.00;0.00;0.62;;;;;13.80;9.70;;;;;;2267946;61;1920;-86
2023/11/19 05:43:29;18079.00;0.06;31.94;0.00;0.00;0.62;;;;;13.70;11.20;;;;;;2268031;61;1185;-87
2023/11/19 05:45:56;3277.00;0.01;6.30;0.00;0.00;0.62;;;;;13.80;10.80;;;;;;2268779;61;1276;-87
2023/11/19 05:48:23;11923.00;0.04;21.28;0.00;0.00;0.62;;;;;14.00;10.40;;;;;;2268719;61;1057;-87
2023/11/19 05:50:49;99497.00;0.33;172.70;33225.00;0.11;58.16;;;;;14.20;8.50;;;;;;2268885;61;1040;-86
2023/11/19 05:53:18;17399.00;0.06;30.77;0.00;0.00;0.62;;;;;14.40;8.00;;;;;;2268607;61;1656;-87
2023/11/19 05:55:54;0.00;0.00;0.62;0.00;0.00;0.62;;;;;14.40;7.70;;;;;;2268842;61;1298;-86
2023/11/19 05:58:21;7717.00;0.03;13.99;0.00;0.00;0.62;;;;;14.60;6.70;;;;;;2268766;61;1134;-87
2023/11/19 06:00:50;191337.00;0.64;331.01;51732.00;0.17;90.18;;;;;14.60;5.30;;;;;;2268770;61;1998;-87
2023/11/19 06:03:17;0.00;0.00;0.62;0.00;0.00;0.62;;;;;14.70;6.20;;;;;;2268701;61;1118;-86
2023/11/19 06:05:45;36495.00;0.12;63.82;0.00;0.00;0.62;;;;;14.70;5.60;;;;;;2268802;61;1293;-85
2023/11/19 06:08:14;124949.00;0.42;216.62;58758.00;0.20;102.33;;;;;14.80;5.70;;;;;;2268632;61;1296;-87
2023/11/19 06:10:43;0.00;0.00;0.62;0.00;0.00;0.62;;;;;14.70;5.80;;;;;;2268700;61;1898;-88
2023/11/19 06:13:11;0.00;0.00;0.62;0.00;0.00;0.62;;;;;15.00;5.10;;;;;;2268800;61;1114;-89
2023/11/19 06:15:38;39985.00;0.13;69.86;0.00;0.00;0.62;;;;;15.20;3.90;;;;;;2268618;61;1233;-87
2023/11/19 06:18:05;0.00;0.00;0.62;0.00;0.00;0.62;;;;;15.40;2.40;;;;;;2268673;61;1119;-87
2023/11/19 06:20:32;26116.00;0.09;45.86;0.00;0.00;0.62;;;;;15.60;1.70;;;;;;2268653;61;1920;-87
2023/11/19 06:22:59;0.00;0.00;0.62;0.00;0.00;0.62;;;;;15.70;1.00;;;;;;2268641;61;1041;-87
2023/11/19 06:25:26;0.00;0.00;0.62;0.00;0.00;0.62;;;;;15.70;1.00;;;;;;2268738;61;1387;-86
2023/11/19 06:27:54;0.00;0.00;0.62;0.00;0.00;0.62;;;;;15.60;1.80;;;;;;2268760;61;1044;-87
2023/11/19 06:30:21;55224.00;0.18;96.22;0.00;0.00;0.62;;;;;15.50;2.20;;;;;;2268605;61;914;-87
2023/11/19 06:32:48;29974.00;0.10;52.54;0.00;0.00;0.62;;;;;15.70;3.10;;;;;;2268724;61;1071;-88
2023/11/19 06:35:15;0.00;0.00;0.62;0.00;0.00;0.62;;;;;15.50;2.80;;;;;;2268710;61;1258;-87
2023/11/19 06:37:43;0.00;0.00;0.62;0.00;0.00;0.62;;;;;15.30;3.40;;;;;;2268527;61;1130;-87
2023/11/19 06:40:12;0.00;0.00;0.62;0.00;0.00;0.62;;;;;15.40;3.60;;;;;;2268676;61;1928;-88
2023/11/19 06:42:39;37387.00;0.12;65.37;0.00;0.00;0.62;;;;;15.60;2.70;;;;;;2268529;61;1091;-87
2023/11/19 06:45:09;0.00;0.00;0.62;0.00;0.00;0.62;;;;;15.80;2.40;;;;;;2268668;61;1376;-88
2023/11/19 06:47:36;0.00;0.00;0.62;0.00;0.00;0.62;;;;;15.80;1.70;;;;;;2268654;61;1487;-86
2023/11/19 06:50:05;19463.00;0.06;34.34;0.00;0.00;0.62;;;;;15.60;1.70;;;;;;2268493;61;1044;-87
2023/11/19 06:52:32;0.00;0.00;0.62;0.00;0.00;0.62;;;;;15.50;2.90;;;;;;2268675;61;983;-87
2023/11/19 06:54:59;119542.00;0.40;207.29;0.00;0.00;0.62;;;;;15.50;2.90;;;;;;2268407;61;1345;-87
2023/11/19 06:57:25;107477.00;0.36;186.48;0.00;0.00;0.62;;;;;15.50;2.90;;;;;;2268627;61;1009;-88
2023/11/19 06:59:52;0.00;0.00;0.62;0.00;0.00;0.62;;;;;15.40;3.60;;;;;;2268603;61;2009;-86
2023/11/19 07:02:20;6809.00;0.02;12.42;0.00;0.00;0.62;;;;;15.30;3.60;;;;;;2268630;61;906;-86
2023/11/19 07:04:48;0.00;0.00;0.62;0.00;0.00;0.62;;;;;15.30;4.10;;;;;;2268346;61;1356;-88
2023/11/19 07:07:15;0.00;0.00;0.62;0.00;0.00;0.62;;;;;15.30;4.80;;;;;;2268649;61;1111;-86
2023/11/19 07:09:42;996.00;0.00;2.35;0.00;0.00;0.62;;;;;15.30;5.10;;;;;;2268529;61;1118;-87
2023/11/19 07:12:09;0.00;0.00;0.62;0.00;0.00;0.62;;;;;15.30;5.10;;;;;;2268672;61;895;-86
2023/11/19 07:14:36;41688.00;0.14;72.81;0.00;0.00;0.62;;;;;15.20;5.60;;;;;;2268489;61;1246;-85
2023/11/19 07:17:04;2034.00;0.01;4.15;0.00;0.00;0.62;;;;;15.30;5.40;;;;;;2268424;61;1102;-85
2023/11/19 07:19:32;0.00;0.00;0.62;0.00;0.00;0.62;;;;;15.40;3.80;;;;;;2268488;61;1122;-85
2023/11/19 07:21:59;37022.00;0.12;64.74;0.00;0.00;0.62;;;;;15.50;4.20;;;;;;2268592;61;2024;-86
2023/11/19 07:24:28;0.00;0.00;0.62;0.00;0.00;0.62;;;;;15.60;3.30;;;;;;2268375;61;1271;-88
2023/11/19 07:26:55;100243.00;0.33;173.99;0.00;0.00;0.62;;;;;15.60;4.60;;;;;;2268537;61;1110;-87
2023/11/19 07:29:22;271235.00;0.90;468.47;44364.00;0.15;77.44;;;;;15.50;3.60;;;;;;2268548;61;1091;-87
2023/11/19 07:31:50;18912.00;0.06;33.39;0.00;0.00;0.62;;;;;15.40;5.20;;;;;;2268526;61;931;-86
2023/11/19 07:34:17;10017.00;0.03;17.98;0.00;0.00;0.62;;;;;15.70;4.70;;;;;;2268420;61;1249;-86
2023/11/19 07:36:46;0.00;0.00;0.62;0.00;0.00;0.62;;;;;15.90;3.10;;;;;;2268480;61;1059;-86
2023/11/19 07:41:46;149096.00;0.50;258.25;0.00;0.00;0.62;;;;;15.70;4.00;;;;;;2278724;40;3346;-86
2023/11/19 07:44:13;42979.00;0.14;75.04;0.00;0.00;0.62;;;;;15.70;3.00;;;;;;2271367;61;1455;-88
2023/11/19 07:46:42;0.00;0.00;0.62;0.00;0.00;0.62;;;;;15.50;4.70;;;;;;2268400;61;1075;-88
2023/11/19 07:49:09;100758.00;0.34;174.88;0.00;0.00;0.62;;;;;15.40;5.10;;;;;;2268328;61;2105;-88
2023/11/19 07:51:36;27581.00;0.09;48.40;0.00;0.00;0.62;;;;;15.40;5.00;;;;;;2268284;61;1040;-84
2023/11/19 07:54:07;0.00;0.00;0.62;0.00;0.00;0.62;;;;;15.40;4.80;;;;;;2268299;61;1352;-86
2023/11/19 07:56:35;0.00;0.00;0.62;0.00;0.00;0.62;;;;;15.60;4.30;;;;;;2268380;61;970;-86
2023/11/19 07:59:02;33440.00;0.11;58.54;0.00;0.00;0.62;;;;;15.70;4.10;;;;;;2268425;61;1107;-86
2023/11/19 08:01:29;63325.00;0.21;110.22;0.00;0.00;0.62;;;;;15.60;3.40;;;;;;2268290;61;2015;-86
2023/11/19 08:03:55;7474.00;0.02;13.57;0.00;0.00;0.62;;;;;15.50;4.20;;;;;;2268266;61;2196;-85
2023/11/19 08:06:23;0.00;0.00;0.62;0.00;0.00;0.62;;;;;15.50;4.10;;;;;;2268248;61;1055;-87
2023/11/19 08:08:49;56353.00;0.19;98.17;0.00;0.00;0.62;;;;;15.50;4.70;;;;;;2268365;61;1033;-87
2023/11/19 08:11:19;16329.00;0.05;28.91;0.00;0.00;0.62;;;;;16.00;3.20;;;;;;2268293;61;1016;-85
2023/11/19 08:13:46;0.00;0.00;0.62;0.00;0.00;0.62;;;;;15.90;2.50;;;;;;2268373;61;1266;-87
2023/11/19 08:16:14;16587.00;0.06;29.36;0.00;0.00;0.62;;;;;16.10;1.20;;;;;;2268315;61;1142;-87
2023/11/19 08:18:43;0.00;0.00;0.62;0.00;0.00;0.62;;;;;16.10;1.90;;;;;;2268333;61;1083;-88
2023/11/19 08:21:10;0.00;0.00;0.62;0.00;0.00;0.62;;;;;16.00;1.90;;;;;;2268374;61;2009;-87
2023/11/19 08:23:37;0.00;0.00;0.62;0.00;0.00;0.62;;;;;16.00;1.80;;;;;;2268366;61;1145;-88
2023/11/19 08:26:05;0.00;0.00;0.62;0.00;0.00;0.62;;;;;16.00;2.00;;;;;;2268340;61;1368;-86
2023/11/19 08:28:34;0.00;0.00;0.62;0.00;0.00;0.62;;;;;15.70;2.80;;;;;;2268183;61;1062;-85
2023/11/19 08:31:01;0.00;0.00;0.62;0.00;0.00;0.62;;;;;15.80;3.10;;;;;;2268367;61;1067;-86
2023/11/19 08:33:27;147437.00;0.49;255.39;0.00;0.00;0.62;;;;;16.20;1.00;;;;;;2268251;61;1069;-88
2023/11/19 08:35:54;49276.00;0.16;85.93;0.00;0.00;0.62;;;;;16.20;1.00;;;;;;2268239;61;1282;-88
2023/11/19 08:38:21;114552.00;0.38;198.68;0.00;0.00;0.62;;;;;16.00;1.70;;;;;;2268272;61;1107;-86
2023/11/19 08:40:48;214857.00;0.72;371.49;0.00;0.00;0.62;;;;;16.00;1.50;;;;;;2268233;61;1918;-87
2023/11/19 08:43:15;173027.00;0.58;299.48;33960.00;0.11;59.44;;;;;16.10;1.00;;;;;;2268075;61;1106;-85
2023/11/19 08:45:44;177951.00;0.59;307.96;0.00;0.00;0.62;;;;;16.20;1.70;;;;;;2268303;61;1275;-86
2023/11/19 08:48:11;70605.00;0.24;122.81;0.00;0.00;0.62;;;;;16.20;1.00;;;;;;2268233;61;1143;-86
2023/11/19 08:50:38;63683.00;0.21;110.84;0.00;0.00;0.62;;;;;15.90;2.30;;;;;;2268155;61;1071;-87
2023/11/19 08:53:06;19270.00;0.06;34.01;0.00;0.00;0.62;;;;;15.70;3.00;;;;;;2268276;61;1118;-86
2023/11/19 08:55:33;2961.00;0.01;5.75;0.00;0.00;0.62;;;;;15.70;3.00;;;;;;2268224;61;1396;-86
2023/11/19 08:58:01;751414.00;2.50;1296.52;75102.00;0.25;130.58;;;;;15.80;3.10;;;;;;2268200;61;1593;-87
2023/11/19 09:00:28;515613.00;1.72;888.71;49274.00;0.16;85.93;;;;;15.80;3.60;;;;;;2268238;61;2002;-87
2023/11/19 09:02:56;884130.00;2.95;1528.26;53967.00;0.18;94.05;;;;;16.10;3.10;;;;;;2268192;61;1566;-86
2023/11/19 09:05:23;1131091.00;3.77;1966.12;70555.00;0.24;122.72;;;;;16.10;2.30;;;;;;2268112;61;1382;-86
2023/11/19 09:07:50;1066094.00;3.55;1849.89;78478.00;0.26;136.41;;;;;16.20;1.90;;;;;;2268196;61;1560;-87
2023/11/19 09:10:17;1165603.00;3.89;2028.15;87848.00;0.29;152.59;;;;;16.30;2.40;;;;;;2267998;61;1544;-87
2023/11/19 09:12:44;934110.00;3.11;1616.11;64072.00;0.21;111.52;;;;;16.20;2.40;;;;;;2268111;61;926;-87
2023/11/19 09:15:11;867962.00;2.89;1499.92;138444.00;0.46;239.89;;;;;16.40;2.30;;;;;;2268146;61;2245;-85
2023/11/19 09:17:38;1179863.00;3.93;2053.85;223564.00;0.75;386.48;;;;;16.70;1.00;;;;;;2268024;61;1549;-87
2023/11/19 09:20:08;117525832.00;391.75;65755156.00;149919.00;0.50;259.67;;;;;16.70;1.00;;;;;;2268160;61;1047;-85
2023/11/19 09:22:35;672678.00;2.24;1159.89;181664.00;0.61;314.36;;;;;16.70;1.00;;;;;;2268113;61;2001;-87
2023/11/19 09:25:05;117455272.00;391.52;65636688.00;83705.00;0.28;145.44;;;;;16.70;1.00;;;;;;2268139;61;2160;-86
2023/11/19 09:27:32;644083.00;2.15;1110.40;134783.00;0.45;233.58;;;;;16.50;1.00;;;;;;2268223;61;806;-86
2023/11/19 09:29:59;117409360.00;391.36;65559680.00;84901.00;0.28;147.50;;;;;16.40;2.00;;;;;;2267973;61;959;-87
2023/11/19 09:32:26;337269.00;1.12;581.98;97980.00;0.33;170.08;;;;;16.80;1.00;;;;;;2268121;61;970;-86
2023/11/19 09:34:53;251839.00;0.84;435.11;62136.00;0.21;108.17;;;;;16.90;1.00;;;;;;2268158;61;1414;-86
2023/11/19 09:37:21;219762.00;0.73;379.93;86507.00;0.29;150.28;;;;;16.80;1.00;;;;;;2268131;61;1025;-86
2023/11/19 09:39:49;261490.00;0.87;451.71;82445.00;0.27;143.26;;;;;16.70;1.00;;;;;;2268129;61;1040;-88
2023/11/19 09:42:17;148334.00;0.49;256.94;0.00;0.00;0.62;;;;;16.60;1.00;;;;;;2268003;61;1996;-86
2023/11/19 09:44:44;188718.00;0.63;326.50;17839.00;0.06;31.53;;;;;16.80;1.00;;;;;;2268111;61;1268;-86
2023/11/19 09:47:12;51919.00;0.17;90.50;0.00;0.00;0.62;;;;;16.50;1.20;;;;;;2268103;61;1071;-85
2023/11/19 09:49:40;56869.00;0.19;99.06;0.00;0.00;0.62;;;;;16.30;2.80;;;;;;2268143;61;1094;-86
2023/11/19 09:52:07;0.00;0.00;0.62;0.00;0.00;0.62;;;;;16.50;1.80;;;;;;2268068;61;1081;-86
2023/11/19 09:54:35;0.00;0.00;0.62;0.00;0.00;0.62;;;;;16.40;1.90;;;;;;2268018;61;1990;-87
2023/11/19 09:57:03;0.00;0.00;0.62;0.00;0.00;0.62;;;;;16.40;1.70;;;;;;2268106;61;1076;-86
2023/11/19 09:59:30;58771.00;0.20;102.35;0.00;0.00;0.62;;;;;16.50;2.90;;;;;;2268022;61;1477;-86
2023/11/19 10:01:58;21774.00;0.07;38.34;0.00;0.00;0.62;;;;;16.60;2.60;;;;;;2268012;61;1911;-86
2023/11/19 10:04:26;0.00;0.00;0.62;0.00;0.00;0.62;;;;;16.50;2.50;;;;;;2267998;61;1381;-85